Terminal Aerodrome Forecast
Issued by NWS

Home | Current Version | Previous Version | Text Only | Print | Product List | Glossary On
Versions: 1 2 3 4 5 6 7 8 9 10 11 12 13 14 15
000
FTUS44 KOUN 292330
TAFCSM
TAF
KCSM 292330Z 3000/3024 10004KT P6SM SCT050 BKN250
     FM301800 08005KT P6SM BKN100 PROB30 3018/3024 P6SM TS BKN050CB=

USA.gov is the U.S. government's official web portal to all federal, state and local government web resources and services.